sensor_id;sensor_type;location;lat;lon;timestamp;temperature;humidity
33988;DHT22;37428;53.580;-1.666;2023-04-30T00:01:36;11.00;88.20
33988;DHT22;37428;53.580;-1.666;2023-04-30T00:04:39;11.00;88.30
33988;DHT22;37428;53.580;-1.666;2023-04-30T00:07:41;11.00;88.50
33988;DHT22;37428;53.580;-1.666;2023-04-30T00:10:43;10.90;88.40
33988;DHT22;37428;53.580;-1.666;2023-04-30T00:13:46;10.90;88.70
33988;DHT22;37428;53.580;-1.666;2023-04-30T00:16:48;10.80;88.70
33988;DHT22;37428;53.580;-1.666;2023-04-30T00:19:52;10.70;88.90
33988;DHT22;37428;53.580;-1.666;2023-04-30T00:22:54;10.70;89.20
33988;DHT22;37428;53.580;-1.666;2023-04-30T00:25:56;10.70;89.40
33988;DHT22;37428;53.580;-1.666;2023-04-30T00:28:58;10.70;89.50
33988;DHT22;37428;53.580;-1.666;2023-04-30T00:32:00;10.80;89.50
33988;DHT22;37428;53.580;-1.666;2023-04-30T00:35:04;10.80;88.90
33988;DHT22;37428;53.580;-1.666;2023-04-30T00:38:06;10.80;88.90
33988;DHT22;37428;53.580;-1.666;2023-04-30T00:41:09;10.80;89.30
33988;DHT22;37428;53.580;-1.666;2023-04-30T00:44:11;10.90;89.10
33988;DHT22;37428;53.580;-1.666;2023-04-30T00:47:13;10.70;88.90
33988;DHT22;37428;53.580;-1.666;2023-04-30T00:50:17;10.70;89.30
33988;DHT22;37428;53.580;-1.666;2023-04-30T00:53:19;10.60;89.50
33988;DHT22;37428;53.580;-1.666;2023-04-30T00:56:22;10.60;89.50
33988;DHT22;37428;53.580;-1.666;2023-04-30T00:59:24;10.50;89.60
33988;DHT22;37428;53.580;-1.666;2023-04-30T01:02:26;10.40;90.00
33988;DHT22;37428;53.580;-1.666;2023-04-30T01:05:29;10.30;90.20
33988;DHT22;37428;53.580;-1.666;2023-04-30T01:08:32;10.30;90.50
33988;DHT22;37428;53.580;-1.666;2023-04-30T01:11:53;10.30;90.70
33988;DHT22;37428;53.580;-1.666;2023-04-30T01:15:06;10.20;90.70
33988;DHT22;37428;53.580;-1.666;2023-04-30T01:18:13;10.20;90.90
33988;DHT22;37428;53.580;-1.666;2023-04-30T01:21:19;10.20;90.70
33988;DHT22;37428;53.580;-1.666;2023-04-30T01:24:43;10.20;91.10
33988;DHT22;37428;53.580;-1.666;2023-04-30T01:28:01;10.20;91.20
33988;DHT22;37428;53.580;-1.666;2023-04-30T01:31:12;10.20;91.20
33988;DHT22;37428;53.580;-1.666;2023-04-30T01:34:14;10.20;90.90
33988;DHT22;37428;53.580;-1.666;2023-04-30T01:37:23;10.10;91.00
33988;DHT22;37428;53.580;-1.666;2023-04-30T01:40:34;10.20;90.50
33988;DHT22;37428;53.580;-1.666;2023-04-30T01:43:49;10.20;90.90
33988;DHT22;37428;53.580;-1.666;2023-04-30T01:47:02;10.20;90.50
33988;DHT22;37428;53.580;-1.666;2023-04-30T01:50:14;10.10;90.30
33988;DHT22;37428;53.580;-1.666;2023-04-30T01:53:23;10.10;90.30
33988;DHT22;37428;53.580;-1.666;2023-04-30T01:56:35;10.00;90.70
33988;DHT22;37428;53.580;-1.666;2023-04-30T01:59:40;10.00;91.20
33988;DHT22;37428;53.580;-1.666;2023-04-30T02:02:43;10.00;90.80
33988;DHT22;37428;53.580;-1.666;2023-04-30T02:05:46;9.90;91.10
33988;DHT22;37428;53.580;-1.666;2023-04-30T02:08:48;9.90;91.80
33988;DHT22;37428;53.580;-1.666;2023-04-30T02:11:50;9.90;91.70
33988;DHT22;37428;53.580;-1.666;2023-04-30T02:14:54;9.90;92.20
33988;DHT22;37428;53.580;-1.666;2023-04-30T02:17:56;9.80;92.20
33988;DHT22;37428;53.580;-1.666;2023-04-30T02:20:58;9.80;92.70
33988;DHT22;37428;53.580;-1.666;2023-04-30T02:24:00;9.80;92.90
33988;DHT22;37428;53.580;-1.666;2023-04-30T02:27:02;9.80;92.90
33988;DHT22;37428;53.580;-1.666;2023-04-30T02:30:07;9.80;92.60
33988;DHT22;37428;53.580;-1.666;2023-04-30T02:33:09;9.80;93.00
33988;DHT22;37428;53.580;-1.666;2023-04-30T02:36:12;9.80;93.00
33988;DHT22;37428;53.580;-1.666;2023-04-30T02:39:14;9.80;93.20
33988;DHT22;37428;53.580;-1.666;2023-04-30T02:42:16;9.80;93.20
33988;DHT22;37428;53.580;-1.666;2023-04-30T02:45:19;9.70;92.60
33988;DHT22;37428;53.580;-1.666;2023-04-30T02:48:22;9.70;93.40
33988;DHT22;37428;53.580;-1.666;2023-04-30T02:51:24;9.70;94.00
33988;DHT22;37428;53.580;-1.666;2023-04-30T02:54:26;9.80;93.70
33988;DHT22;37428;53.580;-1.666;2023-04-30T02:57:28;9.90;93.20
33988;DHT22;37428;53.580;-1.666;2023-04-30T03:00:32;10.00;92.80
33988;DHT22;37428;53.580;-1.666;2023-04-30T03:03:34;10.00;92.30
33988;DHT22;37428;53.580;-1.666;2023-04-30T03:06:36;10.10;92.10
33988;DHT22;37428;53.580;-1.666;2023-04-30T03:09:38;10.00;91.70
33988;DHT22;37428;53.580;-1.666;2023-04-30T03:12:40;9.90;92.10
33988;DHT22;37428;53.580;-1.666;2023-04-30T03:15:43;9.90;92.90
33988;DHT22;37428;53.580;-1.666;2023-04-30T03:18:46;9.90;92.70
33988;DHT22;37428;53.580;-1.666;2023-04-30T03:21:48;9.90;92.90
33988;DHT22;37428;53.580;-1.666;2023-04-30T03:24:50;9.90;92.50
33988;DHT22;37428;53.580;-1.666;2023-04-30T03:27:52;9.90;92.60
33988;DHT22;37428;53.580;-1.666;2023-04-30T03:30:56;9.90;92.90
33988;DHT22;37428;53.580;-1.666;2023-04-30T03:33:58;9.80;93.10
33988;DHT22;37428;53.580;-1.666;2023-04-30T03:37:00;9.90;93.40
33988;DHT22;37428;53.580;-1.666;2023-04-30T03:40:03;9.90;92.90
33988;DHT22;37428;53.580;-1.666;2023-04-30T03:43:06;9.90;93.00
33988;DHT22;37428;53.580;-1.666;2023-04-30T03:46:10;9.90;93.10
33988;DHT22;37428;53.580;-1.666;2023-04-30T03:49:12;9.90;93.00
33988;DHT22;37428;53.580;-1.666;2023-04-30T03:52:14;9.90;92.80
33988;DHT22;37428;53.580;-1.666;2023-04-30T03:55:16;9.80;92.80
33988;DHT22;37428;53.580;-1.666;2023-04-30T03:58:18;9.70;93.40
33988;DHT22;37428;53.580;-1.666;2023-04-30T04:01:22;9.70;93.70
33988;DHT22;37428;53.580;-1.666;2023-04-30T04:04:24;9.70;93.70
33988;DHT22;37428;53.580;-1.666;2023-04-30T04:07:26;9.60;94.30
33988;DHT22;37428;53.580;-1.666;2023-04-30T04:10:28;9.70;94.80
33988;DHT22;37428;53.580;-1.666;2023-04-30T04:13:31;9.80;94.20
33988;DHT22;37428;53.580;-1.666;2023-04-30T04:16:34;9.80;94.10
33988;DHT22;37428;53.580;-1.666;2023-04-30T04:19:36;9.70;94.20
33988;DHT22;37428;53.580;-1.666;2023-04-30T04:22:38;9.60;94.90
33988;DHT22;37428;53.580;-1.666;2023-04-30T04:25:40;9.60;95.30
33988;DHT22;37428;53.580;-1.666;2023-04-30T04:28:44;9.70;95.60
33988;DHT22;37428;53.580;-1.666;2023-04-30T04:31:47;9.60;95.20
33988;DHT22;37428;53.580;-1.666;2023-04-30T04:34:50;9.70;95.00
33988;DHT22;37428;53.580;-1.666;2023-04-30T04:37:54;9.70;95.10
33988;DHT22;37428;53.580;-1.666;2023-04-30T04:40:56;9.70;94.90
33988;DHT22;37428;53.580;-1.666;2023-04-30T04:43:59;9.70;94.80
33988;DHT22;37428;53.580;-1.666;2023-04-30T04:47:02;9.80;94.60
33988;DHT22;37428;53.580;-1.666;2023-04-30T04:50:06;9.80;94.80
33988;DHT22;37428;53.580;-1.666;2023-04-30T04:53:08;9.90;94.60
33988;DHT22;37428;53.580;-1.666;2023-04-30T04:56:10;9.90;94.30
33988;DHT22;37428;53.580;-1.666;2023-04-30T04:59:13;10.00;94.20
33988;DHT22;37428;53.580;-1.666;2023-04-30T05:02:17;10.00;93.90
33988;DHT22;37428;53.580;-1.666;2023-04-30T05:05:19;10.00;93.90
33988;DHT22;37428;53.580;-1.666;2023-04-30T05:08:21;10.00;93.90
33988;DHT22;37428;53.580;-1.666;2023-04-30T05:11:23;10.00;94.10
33988;DHT22;37428;53.580;-1.666;2023-04-30T05:14:26;9.90;94.10
33988;DHT22;37428;53.580;-1.666;2023-04-30T05:17:29;9.90;94.50
33988;DHT22;37428;53.580;-1.666;2023-04-30T05:20:31;9.90;94.90
33988;DHT22;37428;53.580;-1.666;2023-04-30T05:23:33;10.00;94.80
33988;DHT22;37428;53.580;-1.666;2023-04-30T05:26:35;10.00;94.30
33988;DHT22;37428;53.580;-1.666;2023-04-30T05:29:37;10.00;94.70
33988;DHT22;37428;53.580;-1.666;2023-04-30T05:32:41;10.00;94.70
33988;DHT22;37428;53.580;-1.666;2023-04-30T05:35:45;10.00;94.10
33988;DHT22;37428;53.580;-1.666;2023-04-30T05:38:47;9.90;94.90
33988;DHT22;37428;53.580;-1.666;2023-04-30T05:41:49;9.90;95.10
33988;DHT22;37428;53.580;-1.666;2023-04-30T05:44:52;10.00;95.10
33988;DHT22;37428;53.580;-1.666;2023-04-30T05:47:55;10.10;94.70
33988;DHT22;37428;53.580;-1.666;2023-04-30T05:50:57;10.10;95.10
33988;DHT22;37428;53.580;-1.666;2023-04-30T05:53:59;10.20;94.90
33988;DHT22;37428;53.580;-1.666;2023-04-30T05:57:01;10.20;94.40
33988;DHT22;37428;53.580;-1.666;2023-04-30T06:00:04;10.20;94.60
33988;DHT22;37428;53.580;-1.666;2023-04-30T06:03:08;10.20;94.40
33988;DHT22;37428;53.580;-1.666;2023-04-30T06:06:10;10.20;94.30
33988;DHT22;37428;53.580;-1.666;2023-04-30T06:09:12;10.10;94.30
33988;DHT22;37428;53.580;-1.666;2023-04-30T06:12:14;10.10;95.00
33988;DHT22;37428;53.580;-1.666;2023-04-30T06:15:17;10.20;95.00
33988;DHT22;37428;53.580;-1.666;2023-04-30T06:18:20;10.20;94.90
33988;DHT22;37428;53.580;-1.666;2023-04-30T06:21:22;10.30;95.00
33988;DHT22;37428;53.580;-1.666;2023-04-30T06:24:25;10.50;97.30
33988;DHT22;37428;53.580;-1.666;2023-04-30T06:27:29;10.60;96.40
33988;DHT22;37428;53.580;-1.666;2023-04-30T06:30:32;10.70;96.50
33988;DHT22;37428;53.580;-1.666;2023-04-30T06:33:35;10.80;95.90
33988;DHT22;37428;53.580;-1.666;2023-04-30T06:36:37;11.00;95.40
33988;DHT22;37428;53.580;-1.666;2023-04-30T06:39:39;11.20;94.20
33988;DHT22;37428;53.580;-1.666;2023-04-30T06:42:41;11.40;93.00
33988;DHT22;37428;53.580;-1.666;2023-04-30T06:45:43;11.50;90.90
33988;DHT22;37428;53.580;-1.666;2023-04-30T06:48:47;11.60;89.00
33988;DHT22;37428;53.580;-1.666;2023-04-30T06:51:49;11.70;88.30
33988;DHT22;37428;53.580;-1.666;2023-04-30T06:54:51;11.80;88.70
33988;DHT22;37428;53.580;-1.666;2023-04-30T06:57:53;11.50;89.90
33988;DHT22;37428;53.580;-1.666;2023-04-30T07:00:57;11.50;90.60
33988;DHT22;37428;53.580;-1.666;2023-04-30T07:04:00;11.50;91.30
33988;DHT22;37428;53.580;-1.666;2023-04-30T07:07:02;11.50;91.40
33988;DHT22;37428;53.580;-1.666;2023-04-30T07:10:06;11.60;91.90
33988;DHT22;37428;53.580;-1.666;2023-04-30T07:13:08;11.70;91.60
33988;DHT22;37428;53.580;-1.666;2023-04-30T07:16:10;11.70;92.00
33988;DHT22;37428;53.580;-1.666;2023-04-30T07:19:14;11.80;91.50
33988;DHT22;37428;53.580;-1.666;2023-04-30T07:22:16;11.90;91.70
33988;DHT22;37428;53.580;-1.666;2023-04-30T07:25:18;12.00;88.20
33988;DHT22;37428;53.580;-1.666;2023-04-30T07:28:20;12.10;88.10
33988;DHT22;37428;53.580;-1.666;2023-04-30T07:31:22;12.20;86.80
33988;DHT22;37428;53.580;-1.666;2023-04-30T07:34:27;12.40;86.00
33988;DHT22;37428;53.580;-1.666;2023-04-30T07:37:29;12.40;83.90
33988;DHT22;37428;53.580;-1.666;2023-04-30T07:40:31;12.60;83.30
33988;DHT22;37428;53.580;-1.666;2023-04-30T07:43:33;12.80;81.50
33988;DHT22;37428;53.580;-1.666;2023-04-30T07:46:35;13.10;80.50
33988;DHT22;37428;53.580;-1.666;2023-04-30T07:49:39;13.40;79.40
33988;DHT22;37428;53.580;-1.666;2023-04-30T07:52:41;13.50;78.60
33988;DHT22;37428;53.580;-1.666;2023-04-30T07:55:43;13.50;78.60
33988;DHT22;37428;53.580;-1.666;2023-04-30T07:58:45;13.40;78.00
33988;DHT22;37428;53.580;-1.666;2023-04-30T08:01:47;13.40;78.80
33988;DHT22;37428;53.580;-1.666;2023-04-30T08:04:50;13.50;79.70
33988;DHT22;37428;53.580;-1.666;2023-04-30T08:07:53;13.50;78.90
33988;DHT22;37428;53.580;-1.666;2023-04-30T08:10:55;13.50;78.90
33988;DHT22;37428;53.580;-1.666;2023-04-30T08:13:57;13.60;79.10
33988;DHT22;37428;53.580;-1.666;2023-04-30T08:16:59;13.60;79.00
33988;DHT22;37428;53.580;-1.666;2023-04-30T08:20:05;13.70;79.20
33988;DHT22;37428;53.580;-1.666;2023-04-30T08:23:07;13.70;78.30
33988;DHT22;37428;53.580;-1.666;2023-04-30T08:26:09;13.80;78.50
33988;DHT22;37428;53.580;-1.666;2023-04-30T08:29:11;13.70;77.30
33988;DHT22;37428;53.580;-1.666;2023-04-30T08:32:13;13.70;76.30
33988;DHT22;37428;53.580;-1.666;2023-04-30T08:35:17;13.80;75.90
33988;DHT22;37428;53.580;-1.666;2023-04-30T08:38:19;13.80;75.80
33988;DHT22;37428;53.580;-1.666;2023-04-30T08:41:24;13.90;76.20
33988;DHT22;37428;53.580;-1.666;2023-04-30T08:44:27;13.90;74.20
33988;DHT22;37428;53.580;-1.666;2023-04-30T08:47:29;14.00;73.60
33988;DHT22;37428;53.580;-1.666;2023-04-30T08:50:33;13.90;72.70
33988;DHT22;37428;53.580;-1.666;2023-04-30T08:53:36;14.00;73.00
33988;DHT22;37428;53.580;-1.666;2023-04-30T08:56:38;13.90;72.10
33988;DHT22;37428;53.580;-1.666;2023-04-30T08:59:43;13.90;71.70
33988;DHT22;37428;53.580;-1.666;2023-04-30T09:02:46;13.90;72.10
33988;DHT22;37428;53.580;-1.666;2023-04-30T09:05:50;13.90;72.00
33988;DHT22;37428;53.580;-1.666;2023-04-30T09:08:52;14.00;71.10
33988;DHT22;37428;53.580;-1.666;2023-04-30T09:12:10;14.00;70.60
33988;DHT22;37428;53.580;-1.666;2023-04-30T09:15:13;14.00;70.70
33988;DHT22;37428;53.580;-1.666;2023-04-30T09:18:16;14.10;70.50
33988;DHT22;37428;53.580;-1.666;2023-04-30T09:21:31;14.10;70.00
33988;DHT22;37428;53.580;-1.666;2023-04-30T09:24:45;14.20;68.80
33988;DHT22;37428;53.580;-1.666;2023-04-30T09:27:47;14.20;67.20
33988;DHT22;37428;53.580;-1.666;2023-04-30T09:30:50;14.20;66.70
33988;DHT22;37428;53.580;-1.666;2023-04-30T09:33:52;14.10;66.60
33988;DHT22;37428;53.580;-1.666;2023-04-30T09:36:56;14.10;65.30
33988;DHT22;37428;53.580;-1.666;2023-04-30T09:39:58;14.00;64.60
33988;DHT22;37428;53.580;-1.666;2023-04-30T09:43:00;14.00;64.30
33988;DHT22;37428;53.580;-1.666;2023-04-30T09:46:02;13.90;63.50
33988;DHT22;37428;53.580;-1.666;2023-04-30T09:49:05;13.80;64.20
33988;DHT22;37428;53.580;-1.666;2023-04-30T09:52:09;13.70;65.10
33988;DHT22;37428;53.580;-1.666;2023-04-30T09:55:12;13.70;66.00
33988;DHT22;37428;53.580;-1.666;2023-04-30T09:58:15;13.70;66.60
33988;DHT22;37428;53.580;-1.666;2023-04-30T10:01:18;13.60;65.80
33988;DHT22;37428;53.580;-1.666;2023-04-30T10:04:20;13.60;67.20
33988;DHT22;37428;53.580;-1.666;2023-04-30T10:07:24;13.60;68.60
33988;DHT22;37428;53.580;-1.666;2023-04-30T10:10:31;13.60;68.20
33988;DHT22;37428;53.580;-1.666;2023-04-30T10:13:41;13.50;67.50
33988;DHT22;37428;53.580;-1.666;2023-04-30T10:16:48;13.40;68.80
33988;DHT22;37428;53.580;-1.666;2023-04-30T10:19:56;13.50;68.90
33988;DHT22;37428;53.580;-1.666;2023-04-30T10:23:00;13.50;68.30
33988;DHT22;37428;53.580;-1.666;2023-04-30T10:26:03;13.60;66.90
33988;DHT22;37428;53.580;-1.666;2023-04-30T10:29:05;13.70;66.00
33988;DHT22;37428;53.580;-1.666;2023-04-30T10:32:09;13.90;65.70
33988;DHT22;37428;53.580;-1.666;2023-04-30T10:35:18;14.10;64.80
33988;DHT22;37428;53.580;-1.666;2023-04-30T10:38:25;14.30;63.20
33988;DHT22;37428;53.580;-1.666;2023-04-30T10:41:30;14.40;62.80
33988;DHT22;37428;53.580;-1.666;2023-04-30T10:44:33;14.50;63.80
33988;DHT22;37428;53.580;-1.666;2023-04-30T10:47:35;14.50;62.90
33988;DHT22;37428;53.580;-1.666;2023-04-30T10:50:42;14.60;63.10
33988;DHT22;37428;53.580;-1.666;2023-04-30T10:53:48;14.70;63.20
33988;DHT22;37428;53.580;-1.666;2023-04-30T10:56:51;14.60;62.30
33988;DHT22;37428;53.580;-1.666;2023-04-30T11:00:20;14.60;62.30
33988;DHT22;37428;53.580;-1.666;2023-04-30T11:03:27;14.60;62.60
33988;DHT22;37428;53.580;-1.666;2023-04-30T11:06:48;14.50;63.50
33988;DHT22;37428;53.580;-1.666;2023-04-30T11:09:56;14.40;63.20
33988;DHT22;37428;53.580;-1.666;2023-04-30T11:13:02;14.30;62.70
33988;DHT22;37428;53.580;-1.666;2023-04-30T11:16:05;14.20;62.90
33988;DHT22;37428;53.580;-1.666;2023-04-30T11:19:10;14.20;64.10
33988;DHT22;37428;53.580;-1.666;2023-04-30T11:22:26;14.10;63.80
33988;DHT22;37428;53.580;-1.666;2023-04-30T11:25:38;14.10;65.00
33988;DHT22;37428;53.580;-1.666;2023-04-30T11:28:49;14.20;65.20
33988;DHT22;37428;53.580;-1.666;2023-04-30T11:31:52;14.10;64.10
33988;DHT22;37428;53.580;-1.666;2023-04-30T11:34:55;14.10;64.20
33988;DHT22;37428;53.580;-1.666;2023-04-30T11:37:57;14.10;64.70
33988;DHT22;37428;53.580;-1.666;2023-04-30T11:41:02;14.00;65.10
33988;DHT22;37428;53.580;-1.666;2023-04-30T11:44:21;13.90;65.90
33988;DHT22;37428;53.580;-1.666;2023-04-30T11:47:23;13.90;65.00
33988;DHT22;37428;53.580;-1.666;2023-04-30T11:50:27;13.80;65.10
33988;DHT22;37428;53.580;-1.666;2023-04-30T11:53:33;13.80;65.00
33988;DHT22;37428;53.580;-1.666;2023-04-30T11:56:38;13.70;65.70
33988;DHT22;37428;53.580;-1.666;2023-04-30T11:59:40;13.70;64.90
33988;DHT22;37428;53.580;-1.666;2023-04-30T12:02:45;13.80;64.60
33988;DHT22;37428;53.580;-1.666;2023-04-30T12:05:50;13.90;63.00
33988;DHT22;37428;53.580;-1.666;2023-04-30T12:08:52;13.90;61.20
33988;DHT22;37428;53.580;-1.666;2023-04-30T12:11:56;14.00;60.80
33988;DHT22;37428;53.580;-1.666;2023-04-30T12:15:10;14.00;59.20
33988;DHT22;37428;53.580;-1.666;2023-04-30T12:18:13;14.10;57.20
33988;DHT22;37428;53.580;-1.666;2023-04-30T12:21:16;14.10;54.80
33988;DHT22;37428;53.580;-1.666;2023-04-30T12:24:19;14.10;56.10
33988;DHT22;37428;53.580;-1.666;2023-04-30T12:27:24;14.20;56.00
33988;DHT22;37428;53.580;-1.666;2023-04-30T12:30:27;14.30;55.70
33988;DHT22;37428;53.580;-1.666;2023-04-30T12:33:30;14.40;55.40
33988;DHT22;37428;53.580;-1.666;2023-04-30T12:36:33;14.70;56.00
33988;DHT22;37428;53.580;-1.666;2023-04-30T12:39:36;14.80;55.80
33988;DHT22;37428;53.580;-1.666;2023-04-30T12:42:41;14.80;57.00
33988;DHT22;37428;53.580;-1.666;2023-04-30T12:45:45;14.80;57.10
33988;DHT22;37428;53.580;-1.666;2023-04-30T12:48:47;15.10;57.70
33988;DHT22;37428;53.580;-1.666;2023-04-30T12:51:49;15.20;58.40
33988;DHT22;37428;53.580;-1.666;2023-04-30T12:54:51;15.30;58.70
33988;DHT22;37428;53.580;-1.666;2023-04-30T12:58:13;15.50;59.10
33988;DHT22;37428;53.580;-1.666;2023-04-30T13:01:17;15.50;58.80
33988;DHT22;37428;53.580;-1.666;2023-04-30T13:04:20;15.60;59.10
33988;DHT22;37428;53.580;-1.666;2023-04-30T13:07:22;15.40;59.30
33988;DHT22;37428;53.580;-1.666;2023-04-30T13:10:24;15.40;60.90
33988;DHT22;37428;53.580;-1.666;2023-04-30T13:13:28;15.40;61.30
33988;DHT22;37428;53.580;-1.666;2023-04-30T13:16:30;15.30;62.90
33988;DHT22;37428;53.580;-1.666;2023-04-30T13:19:32;15.20;62.70
33988;DHT22;37428;53.580;-1.666;2023-04-30T13:22:34;15.10;63.60
33988;DHT22;37428;53.580;-1.666;2023-04-30T13:25:37;15.10;64.30
33988;DHT22;37428;53.580;-1.666;2023-04-30T13:28:41;15.00;65.10
33988;DHT22;37428;53.580;-1.666;2023-04-30T13:31:44;14.90;65.40
33988;DHT22;37428;53.580;-1.666;2023-04-30T13:34:48;14.80;65.70
33988;DHT22;37428;53.580;-1.666;2023-04-30T13:37:52;14.60;66.70
33988;DHT22;37428;53.580;-1.666;2023-04-30T13:40:54;14.50;67.40
33988;DHT22;37428;53.580;-1.666;2023-04-30T13:43:58;14.30;65.40
33988;DHT22;37428;53.580;-1.666;2023-04-30T13:47:00;14.10;66.60
33988;DHT22;37428;53.580;-1.666;2023-04-30T13:50:03;14.00;67.80
33988;DHT22;37428;53.580;-1.666;2023-04-30T13:53:06;13.90;67.50
33988;DHT22;37428;53.580;-1.666;2023-04-30T13:56:08;13.80;68.30
33988;DHT22;37428;53.580;-1.666;2023-04-30T13:59:12;13.70;69.80
33988;DHT22;37428;53.580;-1.666;2023-04-30T14:02:14;13.70;70.20
33988;DHT22;37428;53.580;-1.666;2023-04-30T14:05:16;13.60;70.40
33988;DHT22;37428;53.580;-1.666;2023-04-30T14:08:18;13.60;70.90
33988;DHT22;37428;53.580;-1.666;2023-04-30T14:11:21;13.50;71.60
33988;DHT22;37428;53.580;-1.666;2023-04-30T14:14:24;13.50;72.40
33988;DHT22;37428;53.580;-1.666;2023-04-30T14:17:26;13.60;72.60
33988;DHT22;37428;53.580;-1.666;2023-04-30T14:20:29;13.60;73.60
33988;DHT22;37428;53.580;-1.666;2023-04-30T14:23:31;13.60;75.20
33988;DHT22;37428;53.580;-1.666;2023-04-30T14:26:34;13.70;75.10
33988;DHT22;37428;53.580;-1.666;2023-04-30T14:29:37;13.60;75.90
33988;DHT22;37428;53.580;-1.666;2023-04-30T14:32:39;13.70;75.50
33988;DHT22;37428;53.580;-1.666;2023-04-30T14:35:41;13.70;76.00
33988;DHT22;37428;53.580;-1.666;2023-04-30T14:38:45;13.70;76.30
33988;DHT22;37428;53.580;-1.666;2023-04-30T14:41:47;13.60;76.20
33988;DHT22;37428;53.580;-1.666;2023-04-30T14:44:50;13.60;76.70
33988;DHT22;37428;53.580;-1.666;2023-04-30T14:47:53;13.50;77.20
33988;DHT22;37428;53.580;-1.666;2023-04-30T14:50:55;13.50;77.90
33988;DHT22;37428;53.580;-1.666;2023-04-30T14:53:57;13.50;78.60
33988;DHT22;37428;53.580;-1.666;2023-04-30T14:56:59;13.50;78.80
33988;DHT22;37428;53.580;-1.666;2023-04-30T15:00:05;13.50;79.40
33988;DHT22;37428;53.580;-1.666;2023-04-30T15:03:07;13.50;79.40
33988;DHT22;37428;53.580;-1.666;2023-04-30T15:06:09;13.50;79.70
33988;DHT22;37428;53.580;-1.666;2023-04-30T15:09:11;13.40;80.10
33988;DHT22;37428;53.580;-1.666;2023-04-30T15:12:13;13.40;80.80
33988;DHT22;37428;53.580;-1.666;2023-04-30T15:15:17;13.50;81.30
33988;DHT22;37428;53.580;-1.666;2023-04-30T15:18:20;13.60;81.60
33988;DHT22;37428;53.580;-1.666;2023-04-30T15:21:23;13.60;80.80
33988;DHT22;37428;53.580;-1.666;2023-04-30T15:24:26;13.60;81.30
33988;DHT22;37428;53.580;-1.666;2023-04-30T15:27:28;13.50;82.20
33988;DHT22;37428;53.580;-1.666;2023-04-30T15:30:31;13.50;83.00
33988;DHT22;37428;53.580;-1.666;2023-04-30T15:33:33;13.50;83.10
33988;DHT22;37428;53.580;-1.666;2023-04-30T15:36:41;13.60;82.80
33988;DHT22;37428;53.580;-1.666;2023-04-30T15:39:43;13.60;83.00
33988;DHT22;37428;53.580;-1.666;2023-04-30T15:42:45;13.70;82.70
33988;DHT22;37428;53.580;-1.666;2023-04-30T15:45:49;13.80;82.60
33988;DHT22;37428;53.580;-1.666;2023-04-30T15:48:51;13.90;80.50
33988;DHT22;37428;53.580;-1.666;2023-04-30T15:51:53;13.80;80.50
33988;DHT22;37428;53.580;-1.666;2023-04-30T15:54:55;13.90;80.30
33988;DHT22;37428;53.580;-1.666;2023-04-30T15:57:57;13.90;80.50
33988;DHT22;37428;53.580;-1.666;2023-04-30T16:01:00;13.80;81.00
33988;DHT22;37428;53.580;-1.666;2023-04-30T16:04:03;13.80;81.30
33988;DHT22;37428;53.580;-1.666;2023-04-30T16:07:06;13.70;81.60
33988;DHT22;37428;53.580;-1.666;2023-04-30T16:10:09;13.60;82.20
33988;DHT22;37428;53.580;-1.666;2023-04-30T16:13:11;13.60;82.70
33988;DHT22;37428;53.580;-1.666;2023-04-30T16:16:14;13.60;82.70
33988;DHT22;37428;53.580;-1.666;2023-04-30T16:19:17;13.70;82.60
33988;DHT22;37428;53.580;-1.666;2023-04-30T16:22:19;13.70;82.50
33988;DHT22;37428;53.580;-1.666;2023-04-30T16:25:21;13.70;82.60
33988;DHT22;37428;53.580;-1.666;2023-04-30T16:28:23;13.70;82.50
33988;DHT22;37428;53.580;-1.666;2023-04-30T16:31:29;13.80;83.60
33988;DHT22;37428;53.580;-1.666;2023-04-30T16:34:31;13.80;84.10
33988;DHT22;37428;53.580;-1.666;2023-04-30T16:37:33;13.80;84.80
33988;DHT22;37428;53.580;-1.666;2023-04-30T16:40:35;13.80;84.90
33988;DHT22;37428;53.580;-1.666;2023-04-30T16:43:37;13.80;83.70
33988;DHT22;37428;53.580;-1.666;2023-04-30T16:46:41;13.80;84.10
33988;DHT22;37428;53.580;-1.666;2023-04-30T16:49:43;13.90;84.30
33988;DHT22;37428;53.580;-1.666;2023-04-30T16:52:45;13.90;83.50
33988;DHT22;37428;53.580;-1.666;2023-04-30T16:55:49;13.80;84.30
33988;DHT22;37428;53.580;-1.666;2023-04-30T16:58:52;13.90;84.10
33988;DHT22;37428;53.580;-1.666;2023-04-30T17:01:56;13.90;83.20
33988;DHT22;37428;53.580;-1.666;2023-04-30T17:05:00;13.90;83.50
33988;DHT22;37428;53.580;-1.666;2023-04-30T17:08:02;14.00;82.90
33988;DHT22;37428;53.580;-1.666;2023-04-30T17:11:05;14.10;82.70
33988;DHT22;37428;53.580;-1.666;2023-04-30T17:14:07;14.10;82.20
33988;DHT22;37428;53.580;-1.666;2023-04-30T17:17:10;14.10;81.50
33988;DHT22;37428;53.580;-1.666;2023-04-30T17:20:13;14.00;81.30
33988;DHT22;37428;53.580;-1.666;2023-04-30T17:23:15;14.10;81.80
33988;DHT22;37428;53.580;-1.666;2023-04-30T17:26:17;14.00;81.10
33988;DHT22;37428;53.580;-1.666;2023-04-30T17:29:20;14.00;81.20
33988;DHT22;37428;53.580;-1.666;2023-04-30T17:32:24;14.00;81.20
33988;DHT22;37428;53.580;-1.666;2023-04-30T17:35:27;14.00;82.30
33988;DHT22;37428;53.580;-1.666;2023-04-30T17:38:29;13.90;82.70
33988;DHT22;37428;53.580;-1.666;2023-04-30T17:41:31;14.00;82.90
33988;DHT22;37428;53.580;-1.666;2023-04-30T17:44:34;13.80;82.60
33988;DHT22;37428;53.580;-1.666;2023-04-30T17:47:37;13.90;83.30
33988;DHT22;37428;53.580;-1.666;2023-04-30T17:50:39;13.80;83.50
33988;DHT22;37428;53.580;-1.666;2023-04-30T17:53:41;13.80;83.90
33988;DHT22;37428;53.580;-1.666;2023-04-30T17:56:43;13.80;83.50
33988;DHT22;37428;53.580;-1.666;2023-04-30T17:59:46;13.80;83.50
33988;DHT22;37428;53.580;-1.666;2023-04-30T18:02:49;13.80;83.20
33988;DHT22;37428;53.580;-1.666;2023-04-30T18:05:51;13.80;83.10
33988;DHT22;37428;53.580;-1.666;2023-04-30T18:08:53;13.90;83.00
33988;DHT22;37428;53.580;-1.666;2023-04-30T18:11:58;13.90;81.90
33988;DHT22;37428;53.580;-1.666;2023-04-30T18:15:00;13.90;81.80
33988;DHT22;37428;53.580;-1.666;2023-04-30T18:18:04;13.90;81.60
33988;DHT22;37428;53.580;-1.666;2023-04-30T18:21:06;14.00;81.60
33988;DHT22;37428;53.580;-1.666;2023-04-30T18:24:09;14.00;81.70
33988;DHT22;37428;53.580;-1.666;2023-04-30T18:27:11;14.00;81.90
33988;DHT22;37428;53.580;-1.666;2023-04-30T18:30:13;14.00;82.50
33988;DHT22;37428;53.580;-1.666;2023-04-30T18:33:17;14.00;82.70
33988;DHT22;37428;53.580;-1.666;2023-04-30T18:36:19;14.00;81.80
33988;DHT22;37428;53.580;-1.666;2023-04-30T18:39:21;13.90;82.30
33988;DHT22;37428;53.580;-1.666;2023-04-30T18:42:23;13.80;82.80
33988;DHT22;37428;53.580;-1.666;2023-04-30T18:45:25;13.70;83.20
33988;DHT22;37428;53.580;-1.666;2023-04-30T18:48:29;13.60;83.50
33988;DHT22;37428;53.580;-1.666;2023-04-30T18:51:31;13.50;83.90
33988;DHT22;37428;53.580;-1.666;2023-04-30T18:54:33;13.40;84.10
33988;DHT22;37428;53.580;-1.666;2023-04-30T18:57:35;13.40;84.60
33988;DHT22;37428;53.580;-1.666;2023-04-30T19:00:39;13.40;84.30
33988;DHT22;37428;53.580;-1.666;2023-04-30T19:03:43;13.30;84.20